createdAt,value
2018-04-22T00:02:03.794Z,62.45
2018-04-22T00:04:29.723Z,62.22
2018-04-22T00:06:57.439Z,61.87
2018-04-22T00:09:23.349Z,61.88
2018-04-22T00:11:52.415Z,62.00
2018-04-22T00:14:18.323Z,62.05
2018-04-22T00:16:47.909Z,62.23
2018-04-22T00:19:13.815Z,62.33
2018-04-22T00:21:42.750Z,62.42
2018-04-22T00:24:08.621Z,62.53
2018-04-22T00:26:35.770Z,62.60
2018-04-22T00:29:01.627Z,62.49
2018-04-22T00:31:27.531Z,62.67
2018-04-22T00:33:53.421Z,62.77
2018-04-22T00:36:19.352Z,62.69
2018-04-22T00:38:48.311Z,62.69
2018-04-22T00:41:14.235Z,63.22
2018-04-22T00:43:44.103Z,63.26
2018-04-22T00:46:10.031Z,63.38
2018-04-22T00:48:36.938Z,63.58
2018-04-22T00:51:02.852Z,63.79
2018-04-22T00:53:44.507Z,63.63
2018-04-22T00:56:10.430Z,64.04
2018-04-22T00:58:36.367Z,64.07
2018-04-22T01:01:02.286Z,63.98
2018-04-22T01:03:28.187Z,64.11
2018-04-22T01:05:54.091Z,64.36
2018-04-22T01:08:19.994Z,64.65
2018-04-22T01:10:45.929Z,64.81
2018-04-22T01:13:11.847Z,65.07
2018-04-22T01:15:37.743Z,65.16
2018-04-22T01:18:03.679Z,65.20
2018-04-22T01:20:29.567Z,65.13
2018-04-22T01:22:55.462Z,64.94
2018-04-22T01:25:21.807Z,64.91
2018-04-22T01:27:47.691Z,65.11
2018-04-22T01:30:17.313Z,65.27
2018-04-22T01:32:43.183Z,65.38
2018-04-22T01:35:12.718Z,65.43
2018-04-22T01:37:38.615Z,65.37
2018-04-22T01:40:06.455Z,65.46
2018-04-22T01:42:32.398Z,65.52
2018-04-22T01:44:58.320Z,66.21
2018-04-22T01:47:24.193Z,66.60
2018-04-22T01:49:50.072Z,66.67
2018-04-22T01:52:19.642Z,66.59
2018-04-22T01:54:45.676Z,66.49
2018-04-22T01:57:13.516Z,66.54
2018-04-22T01:59:39.443Z,66.46
2018-04-22T02:02:08.988Z,66.47
2018-04-22T02:04:34.879Z,66.18
2018-04-22T02:07:02.219Z,66.08
2018-04-22T02:09:28.153Z,66.29
2018-04-22T02:11:58.065Z,66.50
2018-04-22T02:14:23.969Z,66.21
2018-04-22T02:16:53.205Z,66.66
2018-04-22T02:19:19.088Z,66.95
2018-04-22T02:21:45.035Z,66.97
2018-04-22T02:24:10.916Z,66.94
2018-04-22T02:26:36.804Z,66.94
2018-04-22T02:29:03.576Z,67.05
2018-04-22T02:31:29.465Z,67.34
2018-04-22T02:33:58.616Z,67.87
2018-04-22T02:36:24.476Z,67.70
2018-04-22T02:38:54.299Z,67.64
2018-04-22T02:41:20.196Z,67.93
2018-04-22T02:43:49.197Z,68.26
2018-04-22T02:46:15.080Z,68.72
2018-04-22T02:48:42.857Z,68.88
2018-04-22T02:51:08.792Z,69.08
2018-04-22T02:53:38.027Z,69.22
2018-04-22T02:56:03.947Z,68.97
2018-04-22T02:58:29.860Z,69.14
2018-04-22T03:00:55.749Z,69.25
2018-04-22T03:03:21.635Z,69.26
2018-04-22T03:05:49.304Z,69.04
2018-04-22T03:08:15.235Z,69.37
2018-04-22T03:10:44.178Z,70.03
2018-04-22T03:13:10.086Z,69.65
2018-04-22T03:15:39.227Z,69.42
2018-04-22T03:18:05.133Z,69.24
2018-04-22T03:20:34.300Z,69.39
2018-04-22T03:23:00.193Z,69.39
2018-04-22T03:25:29.123Z,69.28
2018-04-22T03:27:54.987Z,69.45
2018-04-22T03:30:22.328Z,70.10
2018-04-22T03:32:48.211Z,69.95
2018-04-22T03:35:14.143Z,70.25
2018-04-22T03:37:40.063Z,70.36
2018-04-22T03:40:05.964Z,70.12
2018-04-22T03:42:34.031Z,70.45
2018-04-22T03:44:59.944Z,70.66
2018-04-22T03:47:29.256Z,70.62
2018-04-22T03:49:55.172Z,70.59
2018-04-22T03:52:24.393Z,70.77
2018-04-22T03:54:50.275Z,71.10
2018-04-22T03:57:18.303Z,71.25
2018-04-22T03:59:44.220Z,71.12
2018-04-22T04:02:13.663Z,71.39
2018-04-22T04:04:39.546Z,71.03
2018-04-22T04:07:07.346Z,69.88
2018-04-22T04:09:33.318Z,70.16
2018-04-22T04:11:59.185Z,70.45
2018-04-22T04:14:25.064Z,70.83
2018-04-22T04:16:50.970Z,70.61
2018-04-22T04:19:32.307Z,70.65
2018-04-22T04:22:10.545Z,70.92
2018-04-22T04:24:49.663Z,71.27
2018-04-22T04:30:21.311Z,70.75
2018-04-22T04:32:47.231Z,71.05
2018-04-22T04:35:16.295Z,70.62
2018-04-22T04:37:42.167Z,70.72
2018-04-22T04:40:09.330Z,70.94
2018-04-22T04:42:35.227Z,70.53
2018-04-22T04:45:05.016Z,71.26
2018-04-22T04:47:30.931Z,71.70
2018-04-22T04:49:58.584Z,71.99
2018-04-22T04:52:24.481Z,72.62
2018-04-22T04:54:53.347Z,72.41
2018-04-22T04:57:19.234Z,71.72
2018-04-22T04:59:47.978Z,71.30
2018-04-22T05:02:13.871Z,71.86
2018-04-22T05:04:42.752Z,71.65
2018-04-22T05:07:08.658Z,71.50
2018-04-22T05:09:34.517Z,71.77
2018-04-22T05:12:00.456Z,71.74
2018-04-22T05:14:26.795Z,70.54
2018-04-22T05:16:55.782Z,69.36
2018-04-22T05:19:21.659Z,69.83
2018-04-22T05:21:50.820Z,70.64
2018-04-22T05:24:16.731Z,71.11
2018-04-22T05:26:43.956Z,70.79
2018-04-22T05:29:09.863Z,71.15
2018-04-22T05:31:39.009Z,71.77
2018-04-22T05:34:04.965Z,71.49
2018-04-22T05:36:34.347Z,69.83
2018-04-22T05:39:00.246Z,69.07
2018-04-22T05:41:28.327Z,68.38
2018-04-22T05:43:54.213Z,68.41
2018-04-22T05:46:20.115Z,67.81
2018-04-22T05:48:46.049Z,66.90
2018-04-22T05:51:11.941Z,66.81
2018-04-22T05:53:40.958Z,66.66
2018-04-22T05:56:06.840Z,68.43
2018-04-22T05:58:35.943Z,67.71
2018-04-22T06:01:01.862Z,67.60
2018-04-22T06:03:29.832Z,67.22
2018-04-22T06:05:55.826Z,66.03
2018-04-22T06:08:25.548Z,63.39
2018-04-22T06:10:51.397Z,64.87
2018-04-22T06:13:20.427Z,64.33
2018-04-22T06:15:46.331Z,64.79
2018-04-22T06:18:13.356Z,60.63
2018-04-22T06:20:39.217Z,60.33
2018-04-22T06:23:05.112Z,61.38
2018-04-22T06:25:31.015Z,61.40
2018-04-22T06:27:56.951Z,60.84
2018-04-22T06:30:26.154Z,58.75
2018-04-22T06:32:52.062Z,59.34
2018-04-22T06:35:19.968Z,59.74
2018-04-22T06:37:45.942Z,60.69
2018-04-22T06:40:15.381Z,60.74
2018-04-22T06:42:41.348Z,60.88
2018-04-22T06:45:10.396Z,61.05
2018-04-22T06:47:36.291Z,57.53
2018-04-22T06:50:05.508Z,55.85
2018-04-22T06:52:31.424Z,54.50
2018-04-22T06:54:59.232Z,53.05
2018-04-22T06:57:25.139Z,50.74
2018-04-22T06:59:51.021Z,49.57
2018-04-22T07:02:16.889Z,49.83
2018-04-22T07:04:42.791Z,47.63
2018-04-22T07:07:12.036Z,46.79
2018-04-22T07:09:37.985Z,45.82
2018-04-22T07:12:05.132Z,45.79
2018-04-22T07:14:31.032Z,43.46
2018-04-22T07:16:59.975Z,42.87
2018-04-22T07:19:25.927Z,43.24
2018-04-22T07:21:54.926Z,42.61
2018-04-22T07:24:20.871Z,41.19
2018-04-22T07:26:50.399Z,40.24
2018-04-22T07:29:16.280Z,40.64
2018-04-22T07:31:45.380Z,39.46
2018-04-22T07:34:11.276Z,39.07
2018-04-22T07:36:37.171Z,39.00
2018-04-22T07:39:03.101Z,39.20
2018-04-22T07:41:29.025Z,41.21
2018-04-22T07:43:55.475Z,41.81
2018-04-22T07:46:21.441Z,38.76
2018-04-22T07:48:50.196Z,38.42
2018-04-22T07:51:16.059Z,37.75
2018-04-22T07:53:44.893Z,38.36
2018-04-22T07:56:10.816Z,38.21
2018-04-22T07:58:39.636Z,39.00
2018-04-22T08:01:05.543Z,37.99
2018-04-22T08:03:34.410Z,39.26
2018-04-22T08:06:00.281Z,38.98
2018-04-22T08:08:29.053Z,40.16
2018-04-22T08:10:54.944Z,39.14
2018-04-22T08:13:20.819Z,38.47
2018-04-22T08:15:46.752Z,38.85
2018-04-22T08:18:12.643Z,39.04
2018-04-22T08:20:42.583Z,38.28
2018-04-22T08:23:08.470Z,37.54
2018-04-22T08:25:35.852Z,37.02
2018-04-22T08:28:01.848Z,37.70
2018-04-22T08:30:31.434Z,36.67
2018-04-22T08:32:57.359Z,37.52
2018-04-22T08:35:26.711Z,37.55
2018-04-22T08:37:52.613Z,37.06
2018-04-22T08:40:20.248Z,37.07
2018-04-22T08:42:46.167Z,37.47
2018-04-22T08:45:15.347Z,35.51
2018-04-22T08:47:41.257Z,35.68
2018-04-22T08:50:07.134Z,37.00
2018-04-22T08:52:33.040Z,36.34
2018-04-22T08:54:59.149Z,35.17
2018-04-22T08:57:28.148Z,35.71
2018-04-22T08:59:54.010Z,35.20
2018-04-22T09:02:21.021Z,34.74
2018-04-22T09:04:46.977Z,35.73
2018-04-22T09:07:16.091Z,35.38
2018-04-22T09:09:42.177Z,34.83
2018-04-22T09:12:11.466Z,35.40
2018-04-22T09:14:37.362Z,34.62
2018-04-22T09:17:06.901Z,34.65
2018-04-22T09:19:32.787Z,34.40
2018-04-22T09:21:59.890Z,34.92
2018-04-22T09:24:25.862Z,35.04
2018-04-22T09:26:51.760Z,34.91
2018-04-22T09:29:17.670Z,34.51
2018-04-22T09:31:43.591Z,34.82
2018-04-22T09:34:13.376Z,34.93
2018-04-22T09:36:39.492Z,34.85
2018-04-22T09:39:06.323Z,33.78
2018-04-22T09:41:32.310Z,34.74
2018-04-22T09:44:01.783Z,33.93
2018-04-22T09:46:27.673Z,34.97
2018-04-22T09:48:56.855Z,33.60
2018-04-22T09:51:22.792Z,35.44
2018-04-22T09:53:51.895Z,32.78
2018-04-22T09:56:17.799Z,32.53
2018-04-22T09:58:45.000Z,31.47
2018-04-22T10:01:16.901Z,31.68
2018-04-22T10:03:42.784Z,31.11
2018-04-22T10:06:08.663Z,30.62
2018-04-22T10:08:34.555Z,32.89
2018-04-22T10:11:00.432Z,32.57
2018-04-22T10:13:26.338Z,32.49
2018-04-22T10:15:52.266Z,31.06
2018-04-22T10:20:59.072Z,30.01
2018-04-22T10:23:25.045Z,30.18
2018-04-22T10:25:51.012Z,29.26
2018-04-22T10:28:16.928Z,27.04
2018-04-22T10:30:42.817Z,25.90
2018-04-22T10:33:08.718Z,26.56
2018-04-22T10:35:34.677Z,27.78
2018-04-22T10:38:01.380Z,26.35
2018-04-22T10:40:27.375Z,26.88
2018-04-22T10:42:53.420Z,26.56
2018-04-22T10:45:19.316Z,26.18
2018-04-22T10:47:45.235Z,27.90
2018-04-22T10:50:11.110Z,26.23
2018-04-22T10:52:36.981Z,25.82
2018-04-22T10:55:02.890Z,24.76
2018-04-22T10:57:32.554Z,25.47
2018-04-22T10:59:58.466Z,24.44
2018-04-22T11:02:27.728Z,23.59
2018-04-22T11:04:53.632Z,23.97
2018-04-22T11:07:21.210Z,24.09
2018-04-22T11:09:47.095Z,23.42
2018-04-22T11:12:16.409Z,23.96
2018-04-22T11:14:43.037Z,23.65
2018-04-22T11:17:09.052Z,24.59
2018-04-22T11:19:34.962Z,23.52
2018-04-22T11:22:00.963Z,23.13
2018-04-22T11:24:27.502Z,24.01
2018-04-22T11:26:53.448Z,24.32
2018-04-22T11:29:22.943Z,21.78
2018-04-22T11:31:48.851Z,22.63
2018-04-22T11:34:17.956Z,23.34
2018-04-22T11:36:43.845Z,22.32
2018-04-22T11:39:11.553Z,23.40
2018-04-22T11:41:37.457Z,23.39
2018-04-22T11:44:06.892Z,25.09
2018-04-22T11:46:32.827Z,24.35
2018-04-22T11:49:02.150Z,24.15
2018-04-22T11:51:28.090Z,24.21
2018-04-22T11:53:53.983Z,24.10
2018-04-22T11:56:19.869Z,24.54
2018-04-22T11:58:45.854Z,22.76
2018-04-22T12:01:12.932Z,22.14
2018-04-22T12:03:38.840Z,22.28
2018-04-22T12:06:08.362Z,22.74
2018-04-22T12:08:34.260Z,22.25
2018-04-22T12:11:03.664Z,22.60
2018-04-22T12:13:29.595Z,23.02
2018-04-22T12:15:56.690Z,24.20
2018-04-22T12:18:22.603Z,22.72
2018-04-22T12:20:51.539Z,22.92
2018-04-22T12:23:17.463Z,23.06
2018-04-22T12:25:46.279Z,23.64
2018-04-22T12:28:12.171Z,23.49
2018-04-22T12:30:38.090Z,23.15
2018-04-22T12:33:03.953Z,23.47
2018-04-22T12:35:29.900Z,24.20
2018-04-22T12:37:58.894Z,21.75
2018-04-22T12:40:24.816Z,20.11
2018-04-22T12:42:54.655Z,22.23
2018-04-22T12:45:20.547Z,25.73
2018-04-22T12:47:48.276Z,24.66
2018-04-22T12:50:14.195Z,25.61
2018-04-22T12:52:43.363Z,24.55
2018-04-22T12:55:09.289Z,25.35
2018-04-22T12:57:37.088Z,23.71
2018-04-22T13:00:02.998Z,24.44
2018-04-22T13:02:32.256Z,22.38
2018-04-22T13:04:58.131Z,24.56
2018-04-22T13:07:24.146Z,25.55
2018-04-22T13:09:50.051Z,23.35
2018-04-22T13:12:15.950Z,25.04
2018-04-22T13:14:45.771Z,24.83
2018-04-22T13:17:11.840Z,26.07
2018-04-22T13:19:38.872Z,26.13
2018-04-22T13:22:04.751Z,26.73
2018-04-22T13:24:34.339Z,26.98
2018-04-22T13:27:00.261Z,27.43
2018-04-22T13:29:27.299Z,25.48
2018-04-22T13:31:53.212Z,24.89
2018-04-22T13:34:21.963Z,24.89
2018-04-22T13:36:47.880Z,22.82
2018-04-22T13:39:16.703Z,23.98
2018-04-22T13:41:42.571Z,24.52
2018-04-22T13:44:08.572Z,26.19
2018-04-22T13:46:34.631Z,27.25
2018-04-22T13:49:00.569Z,27.09
2018-04-22T13:51:29.835Z,27.92
2018-04-22T13:53:56.230Z,27.68
2018-04-22T13:56:23.343Z,28.13
2018-04-22T13:58:49.248Z,26.44
2018-04-22T14:01:18.074Z,23.32
2018-04-22T14:03:43.979Z,21.59
2018-04-22T14:06:12.779Z,20.12
2018-04-22T14:08:38.661Z,19.86
2018-04-22T14:11:07.432Z,20.82
2018-04-22T14:13:33.316Z,21.44
2018-04-22T14:16:02.754Z,21.69
2018-04-22T14:18:28.709Z,21.23
2018-04-22T14:20:54.603Z,20.26
2018-04-22T14:23:20.523Z,21.72
2018-04-22T14:25:46.453Z,23.28
2018-04-22T14:28:15.812Z,22.82
2018-04-22T14:30:41.758Z,21.65
2018-04-22T14:33:09.261Z,20.52
2018-04-22T14:35:35.175Z,22.35
2018-04-22T14:38:03.439Z,22.60
2018-04-22T14:40:29.395Z,22.08
2018-04-22T14:42:59.011Z,22.60
2018-04-22T14:45:38.068Z,22.08
2018-04-22T14:48:04.403Z,21.03
2018-04-22T14:50:30.328Z,20.89
2018-04-22T14:52:56.253Z,20.05
2018-04-22T14:55:22.193Z,19.74
2018-04-22T14:57:48.162Z,19.65
2018-04-22T15:00:14.044Z,19.48
2018-04-22T15:02:39.961Z,18.66
2018-04-22T15:05:05.858Z,17.99
2018-04-22T15:07:31.772Z,17.37
2018-04-22T15:09:57.632Z,17.17
2018-04-22T15:12:23.540Z,16.81
2018-04-22T15:14:49.439Z,16.94
2018-04-22T15:17:15.397Z,17.29
2018-04-22T15:19:43.757Z,18.61
2018-04-22T15:22:09.645Z,18.89
2018-04-22T15:24:39.304Z,17.84
2018-04-22T15:27:05.221Z,17.25
2018-04-22T15:29:32.727Z,17.53
2018-04-22T15:31:58.662Z,17.69
2018-04-22T15:34:24.591Z,19.06
2018-04-22T15:36:50.513Z,19.21
2018-04-22T15:39:16.407Z,19.60
2018-04-22T15:41:44.963Z,20.33
2018-04-22T15:44:10.837Z,19.29
2018-04-22T15:46:40.816Z,19.13
2018-04-22T15:49:06.773Z,19.90
2018-04-22T15:51:34.383Z,19.13
2018-04-22T15:54:00.331Z,19.21
2018-04-22T15:56:30.222Z,18.98
2018-04-22T15:58:56.099Z,19.33
2018-04-22T16:01:23.496Z,19.30
2018-04-22T16:03:49.443Z,19.19
2018-04-22T16:06:18.852Z,19.14
2018-04-22T16:08:44.778Z,19.44
2018-04-22T16:11:11.047Z,19.33
2018-04-22T16:13:36.926Z,18.13
2018-04-22T16:16:02.902Z,18.03
2018-04-22T16:18:29.689Z,17.83
2018-04-22T16:20:55.608Z,18.02
2018-04-22T16:23:25.070Z,17.71
2018-04-22T16:25:51.236Z,17.71
2018-04-22T16:28:20.877Z,17.98
2018-04-22T16:30:46.760Z,18.12
2018-04-22T16:33:14.065Z,18.28
2018-04-22T16:35:39.962Z,18.82
2018-04-22T16:38:09.420Z,19.37
2018-04-22T16:40:35.344Z,19.34
2018-04-22T16:43:03.255Z,19.64
2018-04-22T16:45:29.210Z,20.22
2018-04-22T16:47:55.099Z,20.71
2018-04-22T16:50:21.172Z,21.48
2018-04-22T16:52:47.076Z,22.00
2018-04-22T16:55:16.283Z,22.34
2018-04-22T16:57:42.209Z,23.19
2018-04-22T17:00:11.723Z,23.11
2018-04-22T17:02:37.592Z,23.25
2018-04-22T17:05:04.438Z,24.29
2018-04-22T17:07:30.337Z,24.39
2018-04-22T17:09:59.052Z,24.43
2018-04-22T17:12:24.919Z,24.92
2018-04-22T17:14:54.147Z,25.17
2018-04-22T17:17:20.075Z,25.50
2018-04-22T17:19:50.367Z,25.66
2018-04-22T17:22:16.688Z,25.91
2018-04-22T17:24:42.588Z,26.48
2018-04-22T17:27:08.516Z,27.36
2018-04-22T17:29:39.314Z,27.90
2018-04-22T17:32:11.202Z,28.20
2018-04-22T17:34:43.016Z,29.18
2018-04-22T17:37:15.267Z,29.17
2018-04-22T17:39:45.425Z,31.31
2018-04-22T17:42:11.959Z,29.35
2018-04-22T17:44:37.916Z,29.98
2018-04-22T17:47:03.844Z,30.51
2018-04-22T17:49:29.921Z,30.80
2018-04-22T17:51:55.799Z,31.06
2018-04-22T17:54:21.679Z,30.87
2018-04-22T17:56:47.611Z,31.71
2018-04-22T17:59:13.550Z,32.54
2018-04-22T18:01:39.491Z,32.32
2018-04-22T18:04:06.877Z,32.29
2018-04-22T18:06:33.115Z,32.09
2018-04-22T18:08:59.023Z,32.49
2018-04-22T18:11:24.898Z,32.38
2018-04-22T18:13:50.841Z,32.49
2018-04-22T18:16:16.758Z,31.79
2018-04-22T18:18:42.695Z,31.91
2018-04-22T18:21:08.879Z,31.64
2018-04-22T18:23:34.783Z,32.11
2018-04-22T18:26:00.687Z,32.24
2018-04-22T18:28:26.611Z,33.19
2018-04-22T18:30:52.483Z,33.13
2018-04-22T18:33:19.742Z,33.53
2018-04-22T18:35:45.639Z,33.80
2018-04-22T18:38:11.535Z,33.52
2018-04-22T18:40:37.428Z,34.02
2018-04-22T18:43:03.395Z,34.59
2018-04-22T18:45:31.232Z,35.07
2018-04-22T18:47:57.123Z,34.97
2018-04-22T18:50:26.439Z,35.59
2018-04-22T18:52:52.320Z,35.18
2018-04-22T18:55:21.592Z,34.82
2018-04-22T18:57:48.019Z,34.95
2018-04-22T19:00:15.688Z,35.24
2018-04-22T19:02:41.597Z,35.36
2018-04-22T19:05:11.218Z,36.02
2018-04-22T19:07:37.149Z,35.80
2018-04-22T19:10:04.773Z,36.49
2018-04-22T19:12:30.716Z,36.36
2018-04-22T19:14:57.059Z,36.62
2018-04-22T19:17:22.954Z,36.94
2018-04-22T19:19:48.872Z,36.71
2018-04-22T19:22:16.897Z,37.43
2018-04-22T19:24:42.949Z,37.68
2018-04-22T19:29:45.490Z,37.47
2018-04-22T19:32:11.395Z,37.88
2018-04-22T19:34:37.339Z,38.11
2018-04-22T19:37:03.247Z,38.25
2018-04-22T19:39:29.165Z,38.12
2018-04-22T19:41:55.035Z,38.49
2018-04-22T19:44:20.937Z,38.59
2018-04-22T19:46:49.917Z,37.73
2018-04-22T19:49:15.839Z,39.70
2018-04-22T19:51:41.736Z,38.76
2018-04-22T19:54:07.808Z,38.22
2018-04-22T19:56:33.736Z,38.18
2018-04-22T19:59:03.227Z,38.17
2018-04-22T20:01:29.159Z,37.84
2018-04-22T20:03:56.971Z,38.23
2018-04-22T20:06:22.884Z,38.26
2018-04-22T20:08:51.922Z,38.81
2018-04-22T20:11:17.831Z,39.34
2018-04-22T20:13:45.763Z,39.02
2018-04-22T20:16:11.645Z,38.74
2018-04-22T20:18:40.416Z,38.52
2018-04-22T20:21:06.411Z,38.41
2018-04-22T20:23:35.727Z,38.62
2018-04-22T20:26:01.609Z,37.62
2018-04-22T20:28:27.566Z,37.74
2018-04-22T20:30:53.442Z,37.80
2018-04-22T20:33:20.342Z,38.67
2018-04-22T20:35:47.646Z,38.68
2018-04-22T20:38:13.595Z,38.75
2018-04-22T20:40:43.148Z,37.96
2018-04-22T20:43:09.195Z,37.47
2018-04-22T20:45:36.691Z,37.82
2018-04-22T20:48:02.635Z,37.60
2018-04-22T20:50:32.067Z,37.16
2018-04-22T20:52:57.990Z,37.06
2018-04-22T20:55:27.555Z,36.69
2018-04-22T20:57:56.683Z,36.24
2018-04-22T21:00:22.569Z,36.34
2018-04-22T21:02:48.520Z,36.76
2018-04-22T21:05:14.420Z,36.94
2018-04-22T21:07:40.366Z,36.13
2018-04-22T21:10:06.314Z,35.87
2018-04-22T21:12:32.266Z,35.90
2018-04-22T21:14:58.211Z,36.05
2018-04-22T21:17:27.376Z,36.90
2018-04-22T21:19:53.323Z,36.36
2018-04-22T21:22:23.263Z,36.42
2018-04-22T21:24:49.200Z,36.46
2018-04-22T21:27:16.859Z,36.08
2018-04-22T21:29:42.768Z,35.67
2018-04-22T21:32:12.670Z,35.11
2018-04-22T21:34:38.588Z,35.71
2018-04-22T21:37:06.017Z,36.60
2018-04-22T21:39:32.142Z,38.18
2018-04-22T21:41:58.060Z,41.31
2018-04-22T21:44:23.988Z,42.24
2018-04-22T21:46:49.884Z,42.62
2018-04-22T21:49:17.529Z,41.85
2018-04-22T21:51:43.421Z,41.77
2018-04-22T21:54:13.604Z,41.31
2018-04-22T21:56:39.510Z,40.70
2018-04-22T21:59:07.204Z,40.84
2018-04-22T22:01:33.106Z,39.66
2018-04-22T22:04:02.703Z,39.28
2018-04-22T22:06:28.623Z,40.06
2018-04-22T22:08:56.415Z,39.92
2018-04-22T22:11:22.345Z,38.96
2018-04-22T22:13:51.907Z,39.20
2018-04-22T22:16:17.837Z,37.71
2018-04-22T22:18:43.763Z,37.59
2018-04-22T22:21:09.637Z,38.65
2018-04-22T22:23:35.531Z,37.93
2018-04-22T22:26:03.003Z,38.26
2018-04-22T22:28:28.963Z,36.85
2018-04-22T22:30:58.427Z,37.07
2018-04-22T22:33:24.519Z,37.10
2018-04-22T22:35:53.751Z,36.48
2018-04-22T22:38:19.611Z,37.69
2018-04-22T22:40:47.369Z,38.09
2018-04-22T22:43:13.303Z,37.99
2018-04-22T22:45:42.420Z,38.06
2018-04-22T22:48:08.332Z,37.56
2018-04-22T22:50:38.078Z,36.87
2018-04-22T22:53:04.006Z,37.03
2018-04-22T22:55:29.899Z,36.83
2018-04-22T22:57:55.750Z,37.09
2018-04-22T23:00:21.638Z,37.70
2018-04-22T23:02:48.591Z,38.05
2018-04-22T23:05:14.499Z,37.29
2018-04-22T23:07:43.918Z,37.75
2018-04-22T23:10:09.837Z,37.46
2018-04-22T23:12:37.751Z,35.99
2018-04-22T23:15:03.663Z,37.48
2018-04-22T23:17:33.137Z,36.08
2018-04-22T23:19:59.051Z,37.46
2018-04-22T23:22:26.842Z,36.47
2018-04-22T23:24:52.743Z,37.38
2018-04-22T23:27:21.639Z,36.88
2018-04-22T23:29:47.600Z,37.38
2018-04-22T23:32:13.467Z,37.18
2018-04-22T23:34:39.351Z,37.21
2018-04-22T23:37:05.283Z,36.94
2018-04-22T23:39:34.187Z,37.03
2018-04-22T23:42:00.205Z,37.28
2018-04-22T23:44:28.165Z,38.25
2018-04-22T23:46:54.088Z,38.67
2018-04-22T23:49:23.588Z,38.78
2018-04-22T23:51:49.491Z,38.16
2018-04-22T23:54:18.519Z,38.79
2018-04-22T23:56:44.503Z,38.41
2018-04-22T23:59:13.815Z,38.92
